sensor_id;sensor_type;location;lat;lon;timestamp;P1;durP1;ratioP1;P2;durP2;ratioP2
39822;SDS011;25499;53.958;10.970;2022-08-19T06:10:38;37.33;;;23.92;;
39822;SDS011;25499;53.958;10.970;2022-08-19T06:13:03;41.22;;;25.25;;
39822;SDS011;25499;53.958;10.970;2022-08-19T06:15:30;36.75;;;24.05;;
39822;SDS011;25499;53.958;10.970;2022-08-19T06:17:56;40.65;;;26.02;;
39822;SDS011;25499;53.958;10.970;2022-08-19T06:20:21;39.63;;;25.55;;
39822;SDS011;25499;53.958;10.970;2022-08-19T06:22:47;43.85;;;25.55;;
39822;SDS011;25499;53.958;10.970;2022-08-19T06:25:15;40.80;;;25.50;;
39822;SDS011;25499;53.958;10.970;2022-08-19T06:27:42;40.97;;;25.98;;
39822;SDS011;25499;53.958;10.970;2022-08-19T06:30:08;40.13;;;25.15;;
39822;SDS011;25499;53.958;10.970;2022-08-19T06:32:35;46.17;;;25.20;;
39822;SDS011;25499;53.958;10.970;2022-08-19T06:35:00;44.75;;;26.67;;
39822;SDS011;25499;53.958;10.970;2022-08-19T06:37:26;40.70;;;25.80;;
39822;SDS011;25499;53.958;10.970;2022-08-19T06:39:51;41.38;;;24.63;;
39822;SDS011;25499;53.958;10.970;2022-08-19T06:42:16;46.78;;;26.13;;
39822;SDS011;25499;53.958;10.970;2022-08-19T06:44:45;47.83;;;27.05;;
39822;SDS011;25499;53.958;10.970;2022-08-19T06:49:41;40.78;;;24.98;;
39822;SDS011;25499;53.958;10.970;2022-08-19T06:52:07;41.40;;;26.27;;
39822;SDS011;25499;53.958;10.970;2022-08-19T06:54:33;50.58;;;26.73;;
39822;SDS011;25499;53.958;10.970;2022-08-19T06:56:58;46.20;;;26.02;;
39822;SDS011;25499;53.958;10.970;2022-08-19T06:59:28;45.22;;;25.88;;
39822;SDS011;25499;53.958;10.970;2022-08-19T07:01:57;45.97;;;26.88;;
39822;SDS011;25499;53.958;10.970;2022-08-19T07:04:26;40.15;;;25.40;;
39822;SDS011;25499;53.958;10.970;2022-08-19T07:07:01;42.78;;;25.45;;
39822;SDS011;25499;53.958;10.970;2022-08-19T07:09:31;38.75;;;25.02;;
39822;SDS011;25499;53.958;10.970;2022-08-19T07:11:56;37.75;;;24.42;;
39822;SDS011;25499;53.958;10.970;2022-08-19T07:14:23;39.13;;;24.08;;
39822;SDS011;25499;53.958;10.970;2022-08-19T07:16:51;38.85;;;24.02;;
39822;SDS011;25499;53.958;10.970;2022-08-19T07:19:19;36.67;;;24.13;;
39822;SDS011;25499;53.958;10.970;2022-08-19T07:21:45;43.13;;;24.42;;
39822;SDS011;25499;53.958;10.970;2022-08-19T07:24:12;35.95;;;23.73;;
39822;SDS011;25499;53.958;10.970;2022-08-19T07:26:39;42.03;;;23.52;;
39822;SDS011;25499;53.958;10.970;2022-08-19T07:29:06;37.53;;;24.02;;
39822;SDS011;25499;53.958;10.970;2022-08-19T07:31:32;43.20;;;25.30;;
39822;SDS011;25499;53.958;10.970;2022-08-19T07:34:02;38.80;;;24.20;;
39822;SDS011;25499;53.958;10.970;2022-08-19T07:36:33;42.92;;;25.05;;
39822;SDS011;25499;53.958;10.970;2022-08-19T07:39:01;45.10;;;26.58;;
39822;SDS011;25499;53.958;10.970;2022-08-19T07:41:34;46.22;;;26.15;;
39822;SDS011;25499;53.958;10.970;2022-08-19T07:44:00;51.60;;;28.88;;
39822;SDS011;25499;53.958;10.970;2022-08-19T07:46:32;49.65;;;27.25;;
39822;SDS011;25499;53.958;10.970;2022-08-19T07:49:03;52.47;;;28.50;;
39822;SDS011;25499;53.958;10.970;2022-08-19T07:51:30;50.72;;;29.25;;
39822;SDS011;25499;53.958;10.970;2022-08-19T07:53:55;54.17;;;29.38;;
39822;SDS011;25499;53.958;10.970;2022-08-19T07:56:21;53.13;;;30.00;;
39822;SDS011;25499;53.958;10.970;2022-08-19T07:58:48;57.85;;;30.40;;
39822;SDS011;25499;53.958;10.970;2022-08-19T08:01:17;54.17;;;29.35;;
39822;SDS011;25499;53.958;10.970;2022-08-19T08:03:49;55.17;;;30.20;;
39822;SDS011;25499;53.958;10.970;2022-08-19T08:06:40;58.15;;;29.67;;
39822;SDS011;25499;53.958;10.970;2022-08-19T08:09:35;52.97;;;29.23;;
39822;SDS011;25499;53.958;10.970;2022-08-19T08:12:07;49.45;;;27.52;;
39822;SDS011;25499;53.958;10.970;2022-08-19T08:14:42;48.75;;;29.17;;
39822;SDS011;25499;53.958;10.970;2022-08-19T08:17:10;56.05;;;30.10;;
39822;SDS011;25499;53.958;10.970;2022-08-19T08:19:36;53.20;;;28.95;;
39822;SDS011;25499;53.958;10.970;2022-08-19T08:22:03;62.00;;;31.30;;
39822;SDS011;25499;53.958;10.970;2022-08-19T08:24:31;55.65;;;29.08;;
39822;SDS011;25499;53.958;10.970;2022-08-19T08:26:57;58.40;;;30.55;;
39822;SDS011;25499;53.958;10.970;2022-08-19T08:29:24;64.40;;;31.67;;
39822;SDS011;25499;53.958;10.970;2022-08-19T08:31:51;72.80;;;33.63;;
39822;SDS011;25499;53.958;10.970;2022-08-19T08:34:16;66.43;;;32.03;;
39822;SDS011;25499;53.958;10.970;2022-08-19T08:36:43;69.35;;;33.38;;
39822;SDS011;25499;53.958;10.970;2022-08-19T08:39:18;65.97;;;32.15;;
39822;SDS011;25499;53.958;10.970;2022-08-19T08:42:00;67.18;;;32.28;;
39822;SDS011;25499;53.958;10.970;2022-08-19T08:47:04;66.60;;;32.22;;
39822;SDS011;25499;53.958;10.970;2022-08-19T08:49:42;65.25;;;30.80;;
39822;SDS011;25499;53.958;10.970;2022-08-19T08:54:47;61.90;;;32.58;;
39822;SDS011;25499;53.958;10.970;2022-08-19T08:57:20;59.42;;;30.77;;
39822;SDS011;25499;53.958;10.970;2022-08-19T08:59:54;54.58;;;29.70;;
39822;SDS011;25499;53.958;10.970;2022-08-19T09:02:22;56.88;;;29.08;;
39822;SDS011;25499;53.958;10.970;2022-08-19T09:04:47;58.03;;;29.00;;
39822;SDS011;25499;53.958;10.970;2022-08-19T09:09:51;51.92;;;28.13;;
39822;SDS011;25499;53.958;10.970;2022-08-19T09:12:26;53.10;;;28.58;;
39822;SDS011;25499;53.958;10.970;2022-08-19T09:15:05;52.65;;;28.67;;
39822;SDS011;25499;53.958;10.970;2022-08-19T09:17:34;49.88;;;28.10;;
39822;SDS011;25499;53.958;10.970;2022-08-19T09:22:40;47.70;;;25.38;;
39822;SDS011;25499;53.958;10.970;2022-08-19T09:25:09;50.40;;;27.25;;
39822;SDS011;25499;53.958;10.970;2022-08-19T09:27:36;44.70;;;25.95;;
39822;SDS011;25499;53.958;10.970;2022-08-19T09:30:03;49.72;;;25.55;;
39822;SDS011;25499;53.958;10.970;2022-08-19T09:32:32;46.55;;;26.38;;
39822;SDS011;25499;53.958;10.970;2022-08-19T09:34:58;45.47;;;26.08;;
39822;SDS011;25499;53.958;10.970;2022-08-19T09:37:25;51.40;;;26.90;;
39822;SDS011;25499;53.958;10.970;2022-08-19T09:39:51;48.78;;;26.30;;
39822;SDS011;25499;53.958;10.970;2022-08-19T09:42:17;51.53;;;26.25;;
39822;SDS011;25499;53.958;10.970;2022-08-19T09:44:43;49.20;;;27.38;;
39822;SDS011;25499;53.958;10.970;2022-08-19T09:47:09;50.72;;;27.30;;
39822;SDS011;25499;53.958;10.970;2022-08-19T09:49:37;53.08;;;26.45;;
39822;SDS011;25499;53.958;10.970;2022-08-19T09:52:04;52.72;;;26.13;;
39822;SDS011;25499;53.958;10.970;2022-08-19T09:54:30;50.63;;;27.45;;
39822;SDS011;25499;53.958;10.970;2022-08-19T09:56:57;58.42;;;28.27;;
39822;SDS011;25499;53.958;10.970;2022-08-19T09:59:25;51.80;;;26.75;;
39822;SDS011;25499;53.958;10.970;2022-08-19T10:01:51;53.83;;;26.88;;
39822;SDS011;25499;53.958;10.970;2022-08-19T10:04:20;50.95;;;26.42;;
39822;SDS011;25499;53.958;10.970;2022-08-19T10:07:08;48.08;;;25.65;;
39822;SDS011;25499;53.958;10.970;2022-08-19T10:09:33;51.40;;;26.02;;
39822;SDS011;25499;53.958;10.970;2022-08-19T10:11:59;53.65;;;26.95;;
39822;SDS011;25499;53.958;10.970;2022-08-19T10:14:26;52.08;;;25.20;;
39822;SDS011;25499;53.958;10.970;2022-08-19T10:16:52;49.25;;;25.33;;
39822;SDS011;25499;53.958;10.970;2022-08-19T10:19:17;50.40;;;24.73;;
39822;SDS011;25499;53.958;10.970;2022-08-19T10:21:45;52.42;;;24.75;;
39822;SDS011;25499;53.958;10.970;2022-08-19T10:24:10;45.75;;;24.40;;
39822;SDS011;25499;53.958;10.970;2022-08-19T10:26:36;44.03;;;24.10;;
39822;SDS011;25499;53.958;10.970;2022-08-19T10:29:03;49.17;;;24.20;;
39822;SDS011;25499;53.958;10.970;2022-08-19T10:31:31;48.17;;;24.98;;
39822;SDS011;25499;53.958;10.970;2022-08-19T10:33:59;47.20;;;25.27;;
39822;SDS011;25499;53.958;10.970;2022-08-19T10:36:29;44.75;;;23.27;;
39822;SDS011;25499;53.958;10.970;2022-08-19T10:38:58;51.00;;;24.77;;
39822;SDS011;25499;53.958;10.970;2022-08-19T10:41:31;42.00;;;23.48;;
39822;SDS011;25499;53.958;10.970;2022-08-19T10:44:00;40.45;;;23.23;;
39822;SDS011;25499;53.958;10.970;2022-08-19T10:46:27;39.28;;;23.75;;
39822;SDS011;25499;53.958;10.970;2022-08-19T10:48:57;38.22;;;23.15;;
39822;SDS011;25499;53.958;10.970;2022-08-19T10:51:23;34.63;;;23.38;;
39822;SDS011;25499;53.958;10.970;2022-08-19T10:54:07;40.42;;;24.95;;
39822;SDS011;25499;53.958;10.970;2022-08-19T10:56:33;43.05;;;24.92;;
39822;SDS011;25499;53.958;10.970;2022-08-19T10:59:24;40.30;;;24.67;;
39822;SDS011;25499;53.958;10.970;2022-08-19T11:01:59;38.88;;;25.80;;
39822;SDS011;25499;53.958;10.970;2022-08-19T11:04:26;40.65;;;25.10;;
39822;SDS011;25499;53.958;10.970;2022-08-19T11:06:51;45.53;;;26.38;;
39822;SDS011;25499;53.958;10.970;2022-08-19T11:09:18;43.60;;;27.80;;
39822;SDS011;25499;53.958;10.970;2022-08-19T11:11:46;39.30;;;26.90;;
39822;SDS011;25499;53.958;10.970;2022-08-19T11:14:13;41.33;;;26.75;;
39822;SDS011;25499;53.958;10.970;2022-08-19T11:16:43;37.80;;;26.05;;
39822;SDS011;25499;53.958;10.970;2022-08-19T11:19:09;39.83;;;27.40;;
39822;SDS011;25499;53.958;10.970;2022-08-19T11:21:37;39.20;;;26.75;;
39822;SDS011;25499;53.958;10.970;2022-08-19T11:24:09;40.58;;;25.92;;
39822;SDS011;25499;53.958;10.970;2022-08-19T11:26:37;37.38;;;26.38;;
39822;SDS011;25499;53.958;10.970;2022-08-19T11:29:04;36.45;;;25.05;;
39822;SDS011;25499;53.958;10.970;2022-08-19T11:31:32;39.95;;;26.70;;
39822;SDS011;25499;53.958;10.970;2022-08-19T11:34:00;34.05;;;25.15;;
39822;SDS011;25499;53.958;10.970;2022-08-19T11:36:28;32.22;;;23.50;;
39822;SDS011;25499;53.958;10.970;2022-08-19T11:38:54;33.25;;;23.83;;
39822;SDS011;25499;53.958;10.970;2022-08-19T11:41:20;34.53;;;23.60;;
39822;SDS011;25499;53.958;10.970;2022-08-19T11:43:51;31.63;;;23.10;;
39822;SDS011;25499;53.958;10.970;2022-08-19T11:46:19;28.70;;;22.42;;
39822;SDS011;25499;53.958;10.970;2022-08-19T11:48:45;28.95;;;20.45;;
39822;SDS011;25499;53.958;10.970;2022-08-19T11:51:14;23.55;;;20.17;;
39822;SDS011;25499;53.958;10.970;2022-08-19T11:53:43;22.90;;;18.30;;
39822;SDS011;25499;53.958;10.970;2022-08-19T11:56:09;24.33;;;18.02;;
39822;SDS011;25499;53.958;10.970;2022-08-19T11:58:35;24.48;;;17.42;;
39822;SDS011;25499;53.958;10.970;2022-08-19T12:01:01;23.73;;;18.45;;
39822;SDS011;25499;53.958;10.970;2022-08-19T12:03:30;24.08;;;18.85;;
39822;SDS011;25499;53.958;10.970;2022-08-19T12:05:56;29.25;;;20.45;;
39822;SDS011;25499;53.958;10.970;2022-08-19T12:08:21;26.83;;;19.80;;
39822;SDS011;25499;53.958;10.970;2022-08-19T12:10:47;30.25;;;20.25;;
39822;SDS011;25499;53.958;10.970;2022-08-19T12:13:13;26.38;;;19.42;;
39822;SDS011;25499;53.958;10.970;2022-08-19T12:15:43;24.85;;;17.60;;
39822;SDS011;25499;53.958;10.970;2022-08-19T12:18:10;18.67;;;14.65;;
39822;SDS011;25499;53.958;10.970;2022-08-19T12:20:37;19.63;;;14.88;;
39822;SDS011;25499;53.958;10.970;2022-08-19T12:23:05;19.90;;;14.38;;
39822;SDS011;25499;53.958;10.970;2022-08-19T12:25:32;17.30;;;13.77;;
39822;SDS011;25499;53.958;10.970;2022-08-19T12:27:58;18.15;;;14.60;;
39822;SDS011;25499;53.958;10.970;2022-08-19T12:30:24;22.35;;;15.07;;
39822;SDS011;25499;53.958;10.970;2022-08-19T12:32:49;20.83;;;15.90;;
39822;SDS011;25499;53.958;10.970;2022-08-19T12:35:16;20.30;;;16.08;;
39822;SDS011;25499;53.958;10.970;2022-08-19T12:37:45;22.23;;;16.92;;
39822;SDS011;25499;53.958;10.970;2022-08-19T12:40:11;24.20;;;18.42;;
39822;SDS011;25499;53.958;10.970;2022-08-19T12:42:37;23.38;;;17.88;;
39822;SDS011;25499;53.958;10.970;2022-08-19T12:45:11;27.17;;;18.42;;
39822;SDS011;25499;53.958;10.970;2022-08-19T12:47:37;24.08;;;17.17;;
39822;SDS011;25499;53.958;10.970;2022-08-19T12:50:04;23.40;;;17.52;;
39822;SDS011;25499;53.958;10.970;2022-08-19T12:52:31;21.52;;;16.88;;
39822;SDS011;25499;53.958;10.970;2022-08-19T12:54:57;20.98;;;16.60;;
39822;SDS011;25499;53.958;10.970;2022-08-19T12:57:23;20.58;;;15.40;;
39822;SDS011;25499;53.958;10.970;2022-08-19T12:59:53;18.35;;;15.32;;
39822;SDS011;25499;53.958;10.970;2022-08-19T13:02:18;20.52;;;14.52;;
39822;SDS011;25499;53.958;10.970;2022-08-19T13:04:44;16.55;;;13.02;;
39822;SDS011;25499;53.958;10.970;2022-08-19T13:07:10;15.88;;;12.85;;
39822;SDS011;25499;53.958;10.970;2022-08-19T13:09:36;17.33;;;12.45;;
39822;SDS011;25499;53.958;10.970;2022-08-19T13:12:02;13.68;;;11.10;;
39822;SDS011;25499;53.958;10.970;2022-08-19T13:14:28;13.15;;;10.45;;
39822;SDS011;25499;53.958;10.970;2022-08-19T13:16:55;12.68;;;9.07;;
39822;SDS011;25499;53.958;10.970;2022-08-19T13:19:22;10.68;;;9.25;;
39822;SDS011;25499;53.958;10.970;2022-08-19T13:21:51;11.95;;;9.05;;
39822;SDS011;25499;53.958;10.970;2022-08-19T13:24:18;9.88;;;8.10;;
39822;SDS011;25499;53.958;10.970;2022-08-19T13:26:44;8.80;;;7.88;;
39822;SDS011;25499;53.958;10.970;2022-08-19T13:29:09;10.05;;;8.50;;
39822;SDS011;25499;53.958;10.970;2022-08-19T13:31:54;9.13;;;7.82;;
39822;SDS011;25499;53.958;10.970;2022-08-19T13:34:37;9.98;;;8.27;;
39822;SDS011;25499;53.958;10.970;2022-08-19T13:37:04;9.27;;;8.07;;
39822;SDS011;25499;53.958;10.970;2022-08-19T13:39:33;8.32;;;7.53;;
39822;SDS011;25499;53.958;10.970;2022-08-19T13:42:00;8.13;;;6.85;;
39822;SDS011;25499;53.958;10.970;2022-08-19T13:44:26;7.85;;;7.05;;
39822;SDS011;25499;53.958;10.970;2022-08-19T13:47:00;7.20;;;6.45;;
39822;SDS011;25499;53.958;10.970;2022-08-19T13:49:32;6.88;;;6.28;;
39822;SDS011;25499;53.958;10.970;2022-08-19T13:51:58;9.10;;;8.20;;
39822;SDS011;25499;53.958;10.970;2022-08-19T13:54:23;9.43;;;8.05;;
39822;SDS011;25499;53.958;10.970;2022-08-19T13:56:49;9.07;;;7.72;;
39822;SDS011;25499;53.958;10.970;2022-08-19T13:59:14;10.40;;;9.07;;
39822;SDS011;25499;53.958;10.970;2022-08-19T14:01:40;9.88;;;8.43;;
39822;SDS011;25499;53.958;10.970;2022-08-19T14:04:06;10.00;;;9.00;;
39822;SDS011;25499;53.958;10.970;2022-08-19T14:06:32;11.23;;;8.95;;
39822;SDS011;25499;53.958;10.970;2022-08-19T14:08:57;10.20;;;8.10;;
39822;SDS011;25499;53.958;10.970;2022-08-19T14:11:23;10.70;;;9.27;;
39822;SDS011;25499;53.958;10.970;2022-08-19T14:13:49;12.23;;;9.00;;
39822;SDS011;25499;53.958;10.970;2022-08-19T14:16:15;10.27;;;8.60;;
39822;SDS011;25499;53.958;10.970;2022-08-19T14:18:41;11.07;;;8.80;;
39822;SDS011;25499;53.958;10.970;2022-08-19T14:21:08;9.88;;;8.50;;
39822;SDS011;25499;53.958;10.970;2022-08-19T14:23:42;8.45;;;7.45;;
39822;SDS011;25499;53.958;10.970;2022-08-19T14:26:09;8.38;;;7.03;;
39822;SDS011;25499;53.958;10.970;2022-08-19T14:28:39;7.43;;;6.67;;
39822;SDS011;25499;53.958;10.970;2022-08-19T14:31:10;8.85;;;6.45;;
39822;SDS011;25499;53.958;10.970;2022-08-19T14:33:41;7.72;;;6.70;;
39822;SDS011;25499;53.958;10.970;2022-08-19T14:36:07;10.80;;;8.10;;
39822;SDS011;25499;53.958;10.970;2022-08-19T14:38:33;9.57;;;8.50;;
39822;SDS011;25499;53.958;10.970;2022-08-19T14:43:55;11.32;;;7.35;;
39822;SDS011;25499;53.958;10.970;2022-08-19T14:46:22;9.23;;;7.70;;
39822;SDS011;25499;53.958;10.970;2022-08-19T14:48:50;8.82;;;6.53;;
39822;SDS011;25499;53.958;10.970;2022-08-19T14:51:16;8.85;;;7.15;;
39822;SDS011;25499;53.958;10.970;2022-08-19T14:53:42;10.18;;;7.47;;
39822;SDS011;25499;53.958;10.970;2022-08-19T14:56:12;9.02;;;8.13;;
39822;SDS011;25499;53.958;10.970;2022-08-19T14:58:40;9.52;;;8.02;;
39822;SDS011;25499;53.958;10.970;2022-08-19T15:01:06;9.70;;;7.97;;
39822;SDS011;25499;53.958;10.970;2022-08-19T15:03:32;8.90;;;7.97;;
39822;SDS011;25499;53.958;10.970;2022-08-19T15:05:59;11.18;;;7.78;;
39822;SDS011;25499;53.958;10.970;2022-08-19T15:08:27;10.35;;;8.25;;
39822;SDS011;25499;53.958;10.970;2022-08-19T15:10:54;7.70;;;7.00;;
39822;SDS011;25499;53.958;10.970;2022-08-19T15:13:20;9.98;;;8.32;;
39822;SDS011;25499;53.958;10.970;2022-08-19T15:15:46;11.55;;;9.30;;
39822;SDS011;25499;53.958;10.970;2022-08-19T15:18:13;9.40;;;8.50;;
39822;SDS011;25499;53.958;10.970;2022-08-19T15:20:39;11.45;;;8.77;;
39822;SDS011;25499;53.958;10.970;2022-08-19T15:23:06;10.05;;;8.90;;
39822;SDS011;25499;53.958;10.970;2022-08-19T15:25:32;10.93;;;9.50;;
39822;SDS011;25499;53.958;10.970;2022-08-19T15:27:58;11.43;;;9.43;;
39822;SDS011;25499;53.958;10.970;2022-08-19T15:30:26;12.10;;;9.90;;
39822;SDS011;25499;53.958;10.970;2022-08-19T15:32:53;10.75;;;9.63;;
39822;SDS011;25499;53.958;10.970;2022-08-19T15:35:20;11.98;;;10.15;;
39822;SDS011;25499;53.958;10.970;2022-08-19T15:37:49;14.35;;;10.70;;
39822;SDS011;25499;53.958;10.970;2022-08-19T15:40:16;11.93;;;9.73;;
39822;SDS011;25499;53.958;10.970;2022-08-19T15:42:42;12.25;;;10.07;;
39822;SDS011;25499;53.958;10.970;2022-08-19T15:45:09;12.75;;;10.75;;
39822;SDS011;25499;53.958;10.970;2022-08-19T15:47:37;15.82;;;11.23;;
39822;SDS011;25499;53.958;10.970;2022-08-19T15:52:33;14.43;;;11.02;;
39822;SDS011;25499;53.958;10.970;2022-08-19T15:54:59;14.20;;;11.57;;
39822;SDS011;25499;53.958;10.970;2022-08-19T15:57:24;15.77;;;12.18;;
39822;SDS011;25499;53.958;10.970;2022-08-19T15:59:50;13.88;;;11.18;;
39822;SDS011;25499;53.958;10.970;2022-08-19T16:02:34;14.00;;;11.38;;
39822;SDS011;25499;53.958;10.970;2022-08-19T16:05:19;14.75;;;11.65;;
39822;SDS011;25499;53.958;10.970;2022-08-19T16:08:05;14.63;;;11.13;;
39822;SDS011;25499;53.958;10.970;2022-08-19T16:10:31;17.13;;;11.27;;
39822;SDS011;25499;53.958;10.970;2022-08-19T16:12:58;13.57;;;10.63;;
39822;SDS011;25499;53.958;10.970;2022-08-19T16:15:25;13.23;;;10.80;;
39822;SDS011;25499;53.958;10.970;2022-08-19T16:17:52;13.23;;;11.35;;
39822;SDS011;25499;53.958;10.970;2022-08-19T16:20:18;12.95;;;10.93;;
39822;SDS011;25499;53.958;10.970;2022-08-19T16:22:46;13.45;;;9.73;;
39822;SDS011;25499;53.958;10.970;2022-08-19T16:25:11;11.80;;;10.45;;
39822;SDS011;25499;53.958;10.970;2022-08-19T16:27:38;11.65;;;9.82;;
39822;SDS011;25499;53.958;10.970;2022-08-19T16:30:04;10.25;;;9.07;;
39822;SDS011;25499;53.958;10.970;2022-08-19T16:32:30;10.98;;;9.80;;
39822;SDS011;25499;53.958;10.970;2022-08-19T16:34:56;13.82;;;11.15;;
39822;SDS011;25499;53.958;10.970;2022-08-19T16:37:21;12.80;;;10.68;;
39822;SDS011;25499;53.958;10.970;2022-08-19T16:39:47;15.20;;;10.90;;
39822;SDS011;25499;53.958;10.970;2022-08-19T16:42:13;13.73;;;10.52;;
39822;SDS011;25499;53.958;10.970;2022-08-19T16:44:42;16.30;;;11.15;;
39822;SDS011;25499;53.958;10.970;2022-08-19T16:47:09;12.73;;;11.18;;
39822;SDS011;25499;53.958;10.970;2022-08-19T16:49:38;13.82;;;11.73;;
39822;SDS011;25499;53.958;10.970;2022-08-19T16:52:04;15.63;;;12.10;;
39822;SDS011;25499;53.958;10.970;2022-08-19T16:54:33;12.45;;;11.15;;
39822;SDS011;25499;53.958;10.970;2022-08-19T16:56:59;15.77;;;12.25;;
39822;SDS011;25499;53.958;10.970;2022-08-19T16:59:25;16.80;;;12.73;;
39822;SDS011;25499;53.958;10.970;2022-08-19T17:01:51;17.00;;;12.15;;
39822;SDS011;25499;53.958;10.970;2022-08-19T17:04:16;13.25;;;11.60;;
39822;SDS011;25499;53.958;10.970;2022-08-19T17:06:43;15.65;;;12.07;;
39822;SDS011;25499;53.958;10.970;2022-08-19T17:09:09;14.90;;;12.55;;
39822;SDS011;25499;53.958;10.970;2022-08-19T17:11:34;18.15;;;13.45;;
39822;SDS011;25499;53.958;10.970;2022-08-19T17:14:00;14.70;;;12.32;;
39822;SDS011;25499;53.958;10.970;2022-08-19T17:16:29;13.43;;;12.07;;
39822;SDS011;25499;53.958;10.970;2022-08-19T17:18:57;14.35;;;12.38;;
39822;SDS011;25499;53.958;10.970;2022-08-19T17:21:28;13.07;;;11.77;;
39822;SDS011;25499;53.958;10.970;2022-08-19T17:23:56;13.52;;;10.88;;
39822;SDS011;25499;53.958;10.970;2022-08-19T17:26:23;13.40;;;11.20;;
39822;SDS011;25499;53.958;10.970;2022-08-19T17:28:50;12.80;;;11.02;;
39822;SDS011;25499;53.958;10.970;2022-08-19T17:31:19;13.98;;;10.40;;
39822;SDS011;25499;53.958;10.970;2022-08-19T17:33:47;13.30;;;10.68;;
39822;SDS011;25499;53.958;10.970;2022-08-19T17:36:13;12.60;;;11.10;;
39822;SDS011;25499;53.958;10.970;2022-08-19T17:38:38;12.80;;;11.32;;
39822;SDS011;25499;53.958;10.970;2022-08-19T17:41:04;13.73;;;10.55;;
39822;SDS011;25499;53.958;10.970;2022-08-19T17:43:33;14.07;;;11.73;;
39822;SDS011;25499;53.958;10.970;2022-08-19T17:46:00;14.18;;;11.35;;
39822;SDS011;25499;53.958;10.970;2022-08-19T17:48:30;15.27;;;12.75;;
39822;SDS011;25499;53.958;10.970;2022-08-19T17:53:43;14.13;;;11.73;;
39822;SDS011;25499;53.958;10.970;2022-08-19T17:56:09;13.68;;;11.93;;
39822;SDS011;25499;53.958;10.970;2022-08-19T17:58:35;14.00;;;12.32;;
39822;SDS011;25499;53.958;10.970;2022-08-19T18:01:00;15.43;;;12.65;;
39822;SDS011;25499;53.958;10.970;2022-08-19T18:03:26;16.30;;;13.88;;
39822;SDS011;25499;53.958;10.970;2022-08-19T18:05:55;16.52;;;13.60;;
39822;SDS011;25499;53.958;10.970;2022-08-19T18:08:21;16.73;;;13.43;;
39822;SDS011;25499;53.958;10.970;2022-08-19T18:10:47;16.75;;;14.27;;
39822;SDS011;25499;53.958;10.970;2022-08-19T18:13:13;17.45;;;13.65;;
39822;SDS011;25499;53.958;10.970;2022-08-19T18:15:39;17.30;;;13.70;;
39822;SDS011;25499;53.958;10.970;2022-08-19T18:18:05;17.45;;;14.23;;
39822;SDS011;25499;53.958;10.970;2022-08-19T18:20:33;15.43;;;13.35;;
39822;SDS011;25499;53.958;10.970;2022-08-19T18:22:59;15.70;;;12.63;;
39822;SDS011;25499;53.958;10.970;2022-08-19T18:25:25;16.25;;;13.73;;
39822;SDS011;25499;53.958;10.970;2022-08-19T18:27:56;17.42;;;14.07;;
39822;SDS011;25499;53.958;10.970;2022-08-19T18:30:24;15.70;;;13.05;;
39822;SDS011;25499;53.958;10.970;2022-08-19T18:32:53;15.07;;;12.95;;
39822;SDS011;25499;53.958;10.970;2022-08-19T18:35:20;19.27;;;13.68;;
39822;SDS011;25499;53.958;10.970;2022-08-19T18:37:54;17.23;;;14.23;;
39822;SDS011;25499;53.958;10.970;2022-08-19T18:40:22;16.83;;;12.93;;
39822;SDS011;25499;53.958;10.970;2022-08-19T18:43:07;17.75;;;14.65;;
39822;SDS011;25499;53.958;10.970;2022-08-19T18:45:50;17.30;;;14.45;;
39822;SDS011;25499;53.958;10.970;2022-08-19T18:48:35;16.42;;;13.73;;
39822;SDS011;25499;53.958;10.970;2022-08-19T18:51:20;17.23;;;13.73;;
39822;SDS011;25499;53.958;10.970;2022-08-19T18:53:46;16.77;;;13.23;;
39822;SDS011;25499;53.958;10.970;2022-08-19T18:56:13;17.60;;;14.48;;
39822;SDS011;25499;53.958;10.970;2022-08-19T18:58:41;16.92;;;14.35;;
39822;SDS011;25499;53.958;10.970;2022-08-19T19:01:12;19.58;;;15.05;;
39822;SDS011;25499;53.958;10.970;2022-08-19T19:03:50;19.42;;;14.90;;
39822;SDS011;25499;53.958;10.970;2022-08-19T19:06:24;18.55;;;14.55;;
39822;SDS011;25499;53.958;10.970;2022-08-19T19:08:53;17.30;;;14.45;;
39822;SDS011;25499;53.958;10.970;2022-08-19T19:11:24;17.90;;;14.25;;
39822;SDS011;25499;53.958;10.970;2022-08-19T19:13:52;16.20;;;13.52;;
39822;SDS011;25499;53.958;10.970;2022-08-19T19:16:18;16.27;;;13.48;;
39822;SDS011;25499;53.958;10.970;2022-08-19T19:18:43;15.10;;;12.23;;
39822;SDS011;25499;53.958;10.970;2022-08-19T19:21:09;16.05;;;13.07;;
39822;SDS011;25499;53.958;10.970;2022-08-19T19:23:36;16.90;;;13.43;;
39822;SDS011;25499;53.958;10.970;2022-08-19T19:26:05;15.90;;;13.70;;
39822;SDS011;25499;53.958;10.970;2022-08-19T19:28:34;15.07;;;12.23;;
39822;SDS011;25499;53.958;10.970;2022-08-19T19:31:03;15.20;;;13.18;;
39822;SDS011;25499;53.958;10.970;2022-08-19T19:33:29;13.85;;;12.23;;
39822;SDS011;25499;53.958;10.970;2022-08-19T19:35:55;18.20;;;12.20;;
39822;SDS011;25499;53.958;10.970;2022-08-19T19:38:21;21.95;;;13.40;;
39822;SDS011;25499;53.958;10.970;2022-08-19T19:40:49;17.55;;;13.35;;
39822;SDS011;25499;53.958;10.970;2022-08-19T19:43:14;17.10;;;12.77;;
39822;SDS011;25499;53.958;10.970;2022-08-19T19:45:41;16.90;;;13.95;;
39822;SDS011;25499;53.958;10.970;2022-08-19T19:48:06;17.20;;;14.27;;
39822;SDS011;25499;53.958;10.970;2022-08-19T19:50:34;20.17;;;14.43;;
39822;SDS011;25499;53.958;10.970;2022-08-19T19:52:59;19.77;;;15.85;;
